createdAt,value
2018-07-22T00:00:23.205Z,7.97
2018-07-22T00:02:52.219Z,7.73
2018-07-22T00:05:21.214Z,7.40
2018-07-22T00:07:50.187Z,8.33
2018-07-22T00:10:27.680Z,7.70
2018-07-22T00:12:57.108Z,7.50
2018-07-22T00:15:26.187Z,8.07
2018-07-22T00:17:55.739Z,7.33
2018-07-22T00:20:24.740Z,8.00
2018-07-22T00:22:53.761Z,7.30
2018-07-22T00:25:22.717Z,7.50
2018-07-22T00:27:51.717Z,7.10
2018-07-22T00:30:20.775Z,7.17
2018-07-22T00:32:49.913Z,7.37
2018-07-22T00:35:18.981Z,7.20
2018-07-22T00:37:47.998Z,7.47
2018-07-22T00:40:16.970Z,6.93
2018-07-22T00:42:46.037Z,6.47
2018-07-22T00:45:14.789Z,7.00
2018-07-22T00:47:43.683Z,7.03
2018-07-22T00:50:12.712Z,7.27
2018-07-22T00:52:41.698Z,6.40
2018-07-22T00:55:10.682Z,7.63
2018-07-22T00:57:39.646Z,7.30
2018-07-22T01:00:09.354Z,7.10
2018-07-22T01:02:38.466Z,6.70
2018-07-22T01:05:07.761Z,6.43
2018-07-22T01:07:37.735Z,7.23
2018-07-22T01:10:07.080Z,7.33
2018-07-22T01:12:36.076Z,6.33
2018-07-22T01:15:06.521Z,7.03
2018-07-22T01:17:35.479Z,6.53
2018-07-22T01:20:04.920Z,6.77
2018-07-22T01:22:34.485Z,6.50
2018-07-22T01:25:03.641Z,7.00
2018-07-22T01:27:32.704Z,7.40
2018-07-22T01:30:01.660Z,8.00
2018-07-22T01:32:30.664Z,7.13
2018-07-22T01:34:59.599Z,6.73
2018-07-22T01:37:28.699Z,7.10
2018-07-22T01:39:57.740Z,7.93
2018-07-22T01:42:27.116Z,7.30
2018-07-22T01:44:56.096Z,7.43
2018-07-22T01:47:25.068Z,7.87
2018-07-22T01:49:54.048Z,6.57
2018-07-22T01:52:23.035Z,8.00
2018-07-22T01:54:52.013Z,6.90
2018-07-22T01:57:20.979Z,6.97
2018-07-22T01:59:50.027Z,7.40
2018-07-22T02:02:19.034Z,7.07
2018-07-22T02:04:48.466Z,7.50
2018-07-22T02:07:17.469Z,7.17
2018-07-22T02:09:46.422Z,8.07
2018-07-22T02:12:15.607Z,8.40
2018-07-22T02:14:44.709Z,6.87
2018-07-22T02:17:13.677Z,7.17
2018-07-22T02:19:42.688Z,7.17
2018-07-22T02:22:11.689Z,7.33
2018-07-22T02:24:40.738Z,7.53
2018-07-22T02:27:09.892Z,7.67
2018-07-22T02:29:38.992Z,7.77
2018-07-22T02:32:08.040Z,8.20
2018-07-22T02:34:37.042Z,7.80
2018-07-22T02:37:06.032Z,8.10
2018-07-22T02:39:35.000Z,8.00
2018-07-22T02:42:03.975Z,8.30
2018-07-22T02:44:33.174Z,7.40
2018-07-22T02:47:02.219Z,8.40
2018-07-22T02:49:31.401Z,8.33
2018-07-22T02:52:00.408Z,8.80
2018-07-22T02:54:29.544Z,7.93
2018-07-22T02:56:58.666Z,7.90
2018-07-22T02:59:27.669Z,7.80
2018-07-22T03:01:56.647Z,8.33
2018-07-22T03:04:25.764Z,8.10
2018-07-22T03:06:54.716Z,8.73
2018-07-22T03:09:23.727Z,8.03
2018-07-22T03:11:52.679Z,8.50
2018-07-22T03:14:21.435Z,8.57
2018-07-22T03:16:50.321Z,8.90
2018-07-22T03:19:19.301Z,8.83
2018-07-22T03:21:48.324Z,8.53
2018-07-22T03:24:17.320Z,8.40
2018-07-22T03:26:46.283Z,8.23
2018-07-22T03:29:15.269Z,8.50
2018-07-22T03:31:44.267Z,8.07
2018-07-22T03:34:13.236Z,8.50
2018-07-22T03:36:42.238Z,8.30
2018-07-22T03:39:12.084Z,9.80
2018-07-22T03:41:41.219Z,8.50
2018-07-22T03:44:10.216Z,9.13
2018-07-22T03:46:39.298Z,8.60
2018-07-22T03:49:08.337Z,8.60
2018-07-22T03:51:37.329Z,8.17
2018-07-22T03:54:06.336Z,8.43
2018-07-22T03:56:35.424Z,7.83
2018-07-22T03:59:04.408Z,8.33
2018-07-22T04:01:33.356Z,8.50
2018-07-22T04:04:02.426Z,7.70
2018-07-22T04:06:31.407Z,8.37
2018-07-22T04:09:00.387Z,8.07
2018-07-22T04:11:29.386Z,8.37
2018-07-22T04:13:58.995Z,8.43
2018-07-22T04:16:27.956Z,8.23
2018-07-22T04:18:56.937Z,7.67
2018-07-22T04:21:25.953Z,8.00
2018-07-22T04:23:54.903Z,8.00
2018-07-22T04:26:23.878Z,8.57
2018-07-22T04:28:52.837Z,9.00
2018-07-22T04:31:22.043Z,8.47
2018-07-22T04:33:51.021Z,8.27
2018-07-22T04:36:19.992Z,8.33
2018-07-22T04:38:48.985Z,8.87
2018-07-22T04:41:17.986Z,8.20
2018-07-22T04:43:47.003Z,8.00
2018-07-22T04:46:16.035Z,8.30
2018-07-22T04:48:45.052Z,8.50
2018-07-22T04:51:14.000Z,8.60
2018-07-22T04:53:42.993Z,8.70
2018-07-22T04:56:11.957Z,8.87
2018-07-22T04:58:40.914Z,8.80
2018-07-22T05:01:09.960Z,8.73
2018-07-22T05:03:38.932Z,9.33
2018-07-22T05:06:08.006Z,9.03
2018-07-22T05:08:37.464Z,8.80
2018-07-22T05:11:06.526Z,9.57
2018-07-22T05:13:35.622Z,10.33
2018-07-22T05:16:04.620Z,9.87
2018-07-22T05:18:33.608Z,8.57
2018-07-22T05:21:02.694Z,9.30
2018-07-22T05:23:31.655Z,9.60
2018-07-22T05:26:00.643Z,9.60
2018-07-22T05:28:29.712Z,8.80
2018-07-22T05:30:58.872Z,8.40
2018-07-22T05:33:27.939Z,8.70
2018-07-22T05:35:56.983Z,9.97
2018-07-22T05:38:25.950Z,10.20
2018-07-22T05:40:55.167Z,8.93
2018-07-22T05:43:24.261Z,9.13
2018-07-22T05:45:53.299Z,9.20
2018-07-22T05:48:22.243Z,10.30
2018-07-22T05:50:51.240Z,9.03
2018-07-22T05:53:20.344Z,9.73
2018-07-22T05:55:49.381Z,9.87
2018-07-22T05:58:18.364Z,9.80
2018-07-22T06:00:47.364Z,10.67
2018-07-22T06:03:16.365Z,9.63
2018-07-22T06:05:45.400Z,9.70
2018-07-22T06:08:14.714Z,10.80
2018-07-22T06:10:43.980Z,11.00
2018-07-22T06:13:19.705Z,10.60
2018-07-22T06:15:49.025Z,10.80
2018-07-22T06:18:18.033Z,11.10
2018-07-22T06:20:47.323Z,10.73
2018-07-22T06:23:16.323Z,11.03
2018-07-22T06:25:45.624Z,11.23
2018-07-22T06:28:14.897Z,11.10
2018-07-22T06:30:44.018Z,11.10
2018-07-22T06:33:13.310Z,11.30
2018-07-22T06:35:42.358Z,11.70
2018-07-22T06:38:11.424Z,11.53
2018-07-22T06:40:40.416Z,10.07
2018-07-22T06:43:09.844Z,10.83
2018-07-22T06:45:38.983Z,10.93
2018-07-22T06:48:08.026Z,11.53
2018-07-22T06:50:37.081Z,11.67
2018-07-22T06:53:06.068Z,9.83
2018-07-22T06:55:35.436Z,10.57
2018-07-22T06:58:04.547Z,11.07
2018-07-22T07:00:33.540Z,10.07
2018-07-22T07:03:02.542Z,9.53
2018-07-22T07:05:31.637Z,10.20
2018-07-22T07:08:00.682Z,9.60
2018-07-22T07:10:29.762Z,9.17
2018-07-22T07:12:58.762Z,8.20
2018-07-22T07:15:28.075Z,8.63
2018-07-22T07:17:57.112Z,7.23
2018-07-22T07:20:26.350Z,6.83
2018-07-22T07:22:55.376Z,5.93
2018-07-22T07:25:24.402Z,5.97
2018-07-22T07:27:53.403Z,6.13
2018-07-22T07:30:22.408Z,5.73
2018-07-22T07:32:51.417Z,6.33
2018-07-22T07:35:20.443Z,5.70
2018-07-22T07:37:49.581Z,5.50
2018-07-22T07:40:18.577Z,5.90
2018-07-22T07:42:47.223Z,5.47
2018-07-22T07:45:16.275Z,5.53
2018-07-22T07:47:45.359Z,6.80
2018-07-22T07:50:14.398Z,5.63
2018-07-22T07:52:43.389Z,5.93
2018-07-22T07:55:12.365Z,6.07
2018-07-22T07:57:41.645Z,6.20
2018-07-22T08:00:10.346Z,7.13
2018-07-22T08:02:39.268Z,6.57
2018-07-22T08:05:08.267Z,6.43
2018-07-22T08:07:37.344Z,6.40
2018-07-22T08:10:07.040Z,6.03
2018-07-22T08:12:36.092Z,5.90
2018-07-22T08:15:05.656Z,6.13
2018-07-22T08:17:34.739Z,6.20
2018-07-22T08:20:04.021Z,6.00
2018-07-22T08:22:33.036Z,6.13
2018-07-22T08:25:02.607Z,5.77
2018-07-22T08:27:31.605Z,6.07
2018-07-22T08:30:00.612Z,6.27
2018-07-22T08:32:29.624Z,6.07
2018-07-22T08:34:58.611Z,6.27
2018-07-22T08:37:27.566Z,6.50
2018-07-22T08:39:56.649Z,6.37
2018-07-22T08:42:25.723Z,6.63
2018-07-22T08:44:54.768Z,7.13
2018-07-22T08:47:23.765Z,7.53
2018-07-22T08:49:52.748Z,6.60
2018-07-22T08:52:21.736Z,6.57
2018-07-22T08:54:50.687Z,6.57
2018-07-22T08:57:19.729Z,7.23
2018-07-22T08:59:48.779Z,7.20
2018-07-22T09:02:17.819Z,6.83
2018-07-22T09:04:46.774Z,7.90
2018-07-22T09:07:15.803Z,7.27
2018-07-22T09:09:44.858Z,6.67
2018-07-22T09:12:14.192Z,6.83
2018-07-22T09:14:43.172Z,8.57
2018-07-22T09:17:12.218Z,7.23
2018-07-22T09:19:41.189Z,6.63
2018-07-22T09:22:10.151Z,7.53
2018-07-22T09:24:39.136Z,8.17
2018-07-22T09:27:08.648Z,7.70
2018-07-22T09:29:37.708Z,7.70
2018-07-22T09:32:07.146Z,7.43
2018-07-22T09:34:36.302Z,8.13
2018-07-22T09:37:05.403Z,7.13
2018-07-22T09:39:34.406Z,7.43
2018-07-22T09:42:03.425Z,7.23
2018-07-22T09:44:32.515Z,8.00
2018-07-22T09:47:01.520Z,7.60
2018-07-22T09:49:30.513Z,7.07
2018-07-22T09:51:59.608Z,6.57
2018-07-22T09:54:28.569Z,6.50
2018-07-22T09:56:57.277Z,6.47
2018-07-22T09:59:26.148Z,5.80
2018-07-22T10:01:55.157Z,6.03
2018-07-22T10:04:24.299Z,6.45
2018-07-22T10:06:53.383Z,5.83
2018-07-22T10:09:22.360Z,5.70
2018-07-22T10:11:51.348Z,5.85
2018-07-22T10:14:20.438Z,6.25
2018-07-22T10:16:49.399Z,6.37
2018-07-22T10:19:18.412Z,6.97
2018-07-22T10:21:47.417Z,6.17
2018-07-22T10:24:16.387Z,6.08
2018-07-22T10:26:45.354Z,5.70
2018-07-22T10:29:14.344Z,5.92
2018-07-22T10:31:43.449Z,6.28
2018-07-22T10:34:12.491Z,6.72
2018-07-22T10:36:41.398Z,6.78
2018-07-22T10:39:11.487Z,7.00
2018-07-22T10:41:40.563Z,6.53
2018-07-22T10:44:09.601Z,6.90
2018-07-22T10:46:38.637Z,6.55
2018-07-22T10:49:07.439Z,6.28
2018-07-22T10:51:36.319Z,5.65
2018-07-22T10:54:05.732Z,6.25
2018-07-22T10:56:34.883Z,6.30
2018-07-22T10:59:03.955Z,5.78
2018-07-22T11:01:32.960Z,6.00
2018-07-22T11:04:02.045Z,6.55
2018-07-22T11:06:31.075Z,6.63
2018-07-22T11:09:00.072Z,5.70
2018-07-22T11:11:29.076Z,6.53
2018-07-22T11:13:58.037Z,6.00
2018-07-22T11:16:27.158Z,6.22
2018-07-22T11:18:56.235Z,6.75
2018-07-22T11:21:25.295Z,7.33
2018-07-22T11:23:54.272Z,7.28
2018-07-22T11:26:23.267Z,8.03
2018-07-22T11:28:52.893Z,7.95
2018-07-22T11:31:22.048Z,8.18
2018-07-22T11:33:51.081Z,7.58
2018-07-22T11:36:20.047Z,7.10
2018-07-22T11:38:49.538Z,7.95
2018-07-22T11:41:18.516Z,7.15
2018-07-22T11:43:47.206Z,7.28
2018-07-22T11:46:16.190Z,7.62
2018-07-22T11:48:44.903Z,7.35
2018-07-22T11:51:13.888Z,8.10
2018-07-22T11:53:43.651Z,7.15
2018-07-22T11:56:12.743Z,6.77
2018-07-22T11:58:42.032Z,7.40
2018-07-22T12:01:11.019Z,7.43
2018-07-22T12:03:40.001Z,7.80
2018-07-22T12:06:08.963Z,7.63
2018-07-22T12:08:38.007Z,7.70
2018-07-22T12:11:07.027Z,7.50
2018-07-22T12:13:36.053Z,7.50
2018-07-22T12:16:05.225Z,7.83
2018-07-22T12:18:34.242Z,8.13
2018-07-22T12:21:03.348Z,8.07
2018-07-22T12:23:32.505Z,8.57
2018-07-22T12:26:01.593Z,9.10
2018-07-22T12:28:30.694Z,9.87
2018-07-22T12:30:59.668Z,8.90
2018-07-22T12:33:28.683Z,9.03
2018-07-22T12:35:59.374Z,9.13
2018-07-22T12:38:28.343Z,8.97
2018-07-22T12:40:57.453Z,9.20
2018-07-22T12:43:26.531Z,8.57
2018-07-22T12:45:55.581Z,8.57
2018-07-22T12:48:24.606Z,7.25
2018-07-22T12:50:53.597Z,7.10
2018-07-22T12:53:22.568Z,6.07
2018-07-22T12:55:51.589Z,5.37
2018-07-22T12:58:20.573Z,6.50
2018-07-22T13:00:49.679Z,8.80
2018-07-22T13:03:19.546Z,9.03
2018-07-22T13:05:48.537Z,9.10
2018-07-22T13:08:17.562Z,7.60
2018-07-22T13:10:47.477Z,7.97
2018-07-22T13:13:16.427Z,7.67
2018-07-22T13:15:45.415Z,7.53
2018-07-22T13:18:14.902Z,7.37
2018-07-22T13:20:44.340Z,5.90
2018-07-22T13:23:13.301Z,5.27
2018-07-22T13:25:42.271Z,5.50
2018-07-22T13:28:11.288Z,6.17
2018-07-22T13:30:40.272Z,5.70
2018-07-22T13:33:09.226Z,6.07
2018-07-22T13:35:38.203Z,5.87
2018-07-22T13:38:07.225Z,5.87
2018-07-22T13:40:36.244Z,5.65
2018-07-22T13:43:05.216Z,5.40
2018-07-22T13:45:34.313Z,6.62
2018-07-22T13:48:03.285Z,6.67
2018-07-22T13:50:32.252Z,6.55
2018-07-22T13:53:01.194Z,6.83
2018-07-22T13:55:30.187Z,6.73
2018-07-22T13:57:59.162Z,6.40
2018-07-22T14:00:28.187Z,7.13
2018-07-22T14:02:57.164Z,6.40
2018-07-22T14:05:26.318Z,7.30
2018-07-22T14:07:55.401Z,6.60
2018-07-22T14:10:25.325Z,6.83
2018-07-22T14:12:54.441Z,7.13
2018-07-22T14:15:23.528Z,7.50
2018-07-22T14:17:52.843Z,7.17
2018-07-22T14:20:21.872Z,7.27
2018-07-22T14:22:50.627Z,7.00
2018-07-22T14:25:19.539Z,7.13
2018-07-22T14:27:48.251Z,7.27
2018-07-22T14:30:16.812Z,8.00
2018-07-22T14:32:45.578Z,11.83
2018-07-22T14:35:14.481Z,9.83
2018-07-22T14:37:43.588Z,9.07
2018-07-22T14:40:12.646Z,9.10
2018-07-22T14:42:41.712Z,7.07
2018-07-22T14:45:11.064Z,7.60
2018-07-22T14:47:40.063Z,7.57
2018-07-22T14:50:09.096Z,8.00
2018-07-22T14:52:38.263Z,6.93
2018-07-22T14:55:07.292Z,7.27
2018-07-22T14:57:36.265Z,8.50
2018-07-22T15:00:05.681Z,7.97
2018-07-22T15:02:34.741Z,8.50
2018-07-22T15:05:03.884Z,8.43
2018-07-22T15:07:32.892Z,8.10
2018-07-22T15:10:02.135Z,7.87
2018-07-22T15:12:31.199Z,7.97
2018-07-22T15:15:00.194Z,9.00
2018-07-22T15:17:29.170Z,8.10
2018-07-22T15:19:58.191Z,7.43
2018-07-22T15:22:27.169Z,10.10
2018-07-22T15:24:56.186Z,9.13
2018-07-22T15:27:25.212Z,9.47
2018-07-22T15:29:54.250Z,9.40
2018-07-22T15:32:23.258Z,9.80
2018-07-22T15:34:52.278Z,9.73
2018-07-22T15:37:21.296Z,8.27
2018-07-22T15:39:50.331Z,11.63
2018-07-22T15:42:19.308Z,11.63
2018-07-22T15:44:48.312Z,12.63
2018-07-22T15:47:17.273Z,11.67
2018-07-22T15:49:46.491Z,14.57
2018-07-22T15:52:15.500Z,14.13
2018-07-22T15:54:44.472Z,13.37
2018-07-22T15:57:13.702Z,13.47
2018-07-22T15:59:42.716Z,14.30
2018-07-22T16:02:11.776Z,12.93
2018-07-22T16:04:40.843Z,13.73
2018-07-22T16:07:09.944Z,13.83
2018-07-22T16:09:39.022Z,12.30
2018-07-22T16:12:08.127Z,13.90
2018-07-22T16:14:37.134Z,12.50
2018-07-22T16:17:06.284Z,12.27
2018-07-22T16:19:35.297Z,13.03
2018-07-22T16:22:04.405Z,12.47
2018-07-22T16:24:33.506Z,12.80
2018-07-22T16:27:02.604Z,12.50
2018-07-22T16:29:31.777Z,12.50
2018-07-22T16:32:00.743Z,12.00
2018-07-22T16:34:29.784Z,12.50
2018-07-22T16:36:58.799Z,12.97
2018-07-22T16:39:27.858Z,13.00
2018-07-22T16:41:56.900Z,12.23
2018-07-22T16:44:25.919Z,11.90
2018-07-22T16:46:55.061Z,12.37
2018-07-22T16:49:24.065Z,11.83
2018-07-22T16:51:53.112Z,13.63
2018-07-22T16:54:21.778Z,13.27
2018-07-22T16:56:50.701Z,12.93
2018-07-22T16:59:19.704Z,12.13
2018-07-22T17:01:48.701Z,12.23
2018-07-22T17:04:17.794Z,12.33
2018-07-22T17:06:46.782Z,11.67
2018-07-22T17:09:15.503Z,12.87
2018-07-22T17:11:44.375Z,11.50
2018-07-22T17:14:13.407Z,12.30
2018-07-22T17:16:42.361Z,11.87
2018-07-22T17:19:11.345Z,12.03
2018-07-22T17:21:40.458Z,12.33
2018-07-22T17:24:09.507Z,14.10
2018-07-22T17:26:38.643Z,16.23
2018-07-22T17:29:07.667Z,15.83
2018-07-22T17:31:36.662Z,18.53
2018-07-22T17:34:05.750Z,19.33
2018-07-22T17:36:34.746Z,19.27
2018-07-22T17:39:04.801Z,19.37
2018-07-22T17:41:33.803Z,19.90
2018-07-22T17:44:02.862Z,20.03
2018-07-22T17:46:31.847Z,18.97
2018-07-22T17:49:00.834Z,20.13
2018-07-22T17:51:29.915Z,19.77
2018-07-22T17:53:58.921Z,18.97
2018-07-22T17:56:27.926Z,17.07
2018-07-22T17:58:56.910Z,17.07
2018-07-22T18:01:25.932Z,18.20
2018-07-22T18:03:54.940Z,17.50
2018-07-22T18:06:23.608Z,17.10
2018-07-22T18:08:52.197Z,16.13
2018-07-22T18:11:20.782Z,16.47
2018-07-22T18:13:49.680Z,15.67
2018-07-22T18:16:19.348Z,15.37
2018-07-22T18:18:48.356Z,15.50
2018-07-22T18:21:17.404Z,15.57
2018-07-22T18:23:46.521Z,15.27
2018-07-22T18:26:15.509Z,14.90
2018-07-22T18:28:44.677Z,15.00
2018-07-22T18:31:13.724Z,15.50
2018-07-22T18:33:42.807Z,14.23
2018-07-22T18:36:11.797Z,14.70
2018-07-22T18:38:41.020Z,14.87
2018-07-22T18:41:10.209Z,13.93
2018-07-22T18:43:39.349Z,14.77
2018-07-22T18:46:08.305Z,15.53
2018-07-22T18:48:37.391Z,15.37
2018-07-22T18:51:07.038Z,15.53
2018-07-22T18:53:36.638Z,16.63
2018-07-22T18:56:06.437Z,15.80
2018-07-22T18:58:35.874Z,16.43
2018-07-22T19:01:05.369Z,17.30
2018-07-22T19:03:34.462Z,16.43
2018-07-22T19:06:03.512Z,16.40
2018-07-22T19:08:32.621Z,16.77
2018-07-22T19:11:01.679Z,16.53
2018-07-22T19:13:31.072Z,16.43
2018-07-22T19:16:00.163Z,16.83
2018-07-22T19:18:29.215Z,17.63
2018-07-22T19:20:58.251Z,17.93
2018-07-22T19:23:27.297Z,17.17
2018-07-22T19:25:56.367Z,17.07
2018-07-22T19:28:25.375Z,16.77
2018-07-22T19:30:54.392Z,19.80
2018-07-22T19:33:23.408Z,17.57
2018-07-22T19:35:52.418Z,18.43
2018-07-22T19:38:21.382Z,18.77
2018-07-22T19:40:50.383Z,18.77
2018-07-22T19:43:19.381Z,18.97
2018-07-22T19:45:48.363Z,18.67
2018-07-22T19:48:17.340Z,19.80
2018-07-22T19:50:46.349Z,19.17
2018-07-22T19:53:15.426Z,20.17
2018-07-22T19:55:44.464Z,19.50
2018-07-22T19:58:13.433Z,21.70
2018-07-22T20:00:42.488Z,19.53
2018-07-22T20:03:12.061Z,20.33
2018-07-22T20:05:40.955Z,21.03
2018-07-22T20:08:09.945Z,21.33
2018-07-22T20:10:39.631Z,22.13
2018-07-22T20:13:09.246Z,22.07
2018-07-22T20:15:38.229Z,21.77
2018-07-22T20:18:07.678Z,20.87
2018-07-22T20:20:36.678Z,20.30
2018-07-22T20:23:05.694Z,22.63
2018-07-22T20:25:34.748Z,21.90
2018-07-22T20:28:03.937Z,21.67
2018-07-22T20:30:33.949Z,21.33
2018-07-22T20:33:02.933Z,20.70
2018-07-22T20:35:31.913Z,19.20
2018-07-22T20:38:00.599Z,19.13
2018-07-22T20:40:29.500Z,17.83
2018-07-22T20:42:58.460Z,18.00
2018-07-22T20:45:27.439Z,16.90
2018-07-22T20:47:56.529Z,17.73
2018-07-22T20:50:25.622Z,16.67
2018-07-22T20:52:54.603Z,15.37
2018-07-22T20:55:23.609Z,16.87
2018-07-22T20:57:52.585Z,15.73
2018-07-22T21:00:21.681Z,15.93
2018-07-22T21:02:50.743Z,15.40
2018-07-22T21:05:19.781Z,16.60
2018-07-22T21:07:48.762Z,17.00
2018-07-22T21:10:17.764Z,15.93
2018-07-22T21:12:57.940Z,16.60
2018-07-22T21:15:27.037Z,16.53
2018-07-22T21:17:56.004Z,15.90
2018-07-22T21:20:25.120Z,15.87
2018-07-22T21:22:54.093Z,15.97
2018-07-22T21:25:23.092Z,15.47
2018-07-22T21:27:52.137Z,15.93
2018-07-22T21:30:21.197Z,14.90
2018-07-22T21:32:50.241Z,14.20
2018-07-22T21:35:19.195Z,14.53
2018-07-22T21:37:47.868Z,13.30
2018-07-22T21:40:16.810Z,13.83
2018-07-22T21:42:45.789Z,13.93
2018-07-22T21:45:14.801Z,13.13
2018-07-22T21:47:43.800Z,12.77
2018-07-22T21:50:12.793Z,14.33
2018-07-22T21:52:41.814Z,13.27
2018-07-22T21:55:10.845Z,13.30
2018-07-22T21:57:39.885Z,13.13
2018-07-22T22:00:32.116Z,13.40
2018-07-22T22:03:03.045Z,12.87
2018-07-22T22:05:32.648Z,13.03
2018-07-22T22:08:01.688Z,12.77
2018-07-22T22:10:30.709Z,13.27
2018-07-22T22:12:59.727Z,13.03
2018-07-22T22:15:29.685Z,12.10
2018-07-22T22:17:59.813Z,12.47
2018-07-22T22:20:29.219Z,11.77
2018-07-22T22:22:58.392Z,12.43
2018-07-22T22:25:27.639Z,11.83
2018-07-22T22:27:56.655Z,12.60
2018-07-22T22:30:25.679Z,11.70
2018-07-22T22:32:54.675Z,11.53
2018-07-22T22:35:23.652Z,12.73
2018-07-22T22:37:52.685Z,12.97
2018-07-22T22:40:21.716Z,11.27
2018-07-22T22:42:50.789Z,11.07
2018-07-22T22:45:19.812Z,11.13
2018-07-22T22:47:48.876Z,11.37
2018-07-22T22:50:17.556Z,11.37
2018-07-22T22:52:46.563Z,11.43
2018-07-22T22:55:15.628Z,11.53
2018-07-22T22:57:55.956Z,11.83
2018-07-22T23:00:25.069Z,12.07
2018-07-22T23:02:54.023Z,10.57
2018-07-22T23:05:23.009Z,10.17
2018-07-22T23:07:52.566Z,10.63
2018-07-22T23:10:21.551Z,10.23
2018-07-22T23:12:50.529Z,10.23
2018-07-22T23:15:19.498Z,9.30
2018-07-22T23:17:48.522Z,9.97
2018-07-22T23:20:17.582Z,9.37
2018-07-22T23:22:46.263Z,10.20
2018-07-22T23:25:15.179Z,10.30
2018-07-22T23:27:44.319Z,10.63
2018-07-22T23:30:13.311Z,10.90
2018-07-22T23:32:42.308Z,11.80
2018-07-22T23:35:11.279Z,11.03
2018-07-22T23:37:40.388Z,11.30
2018-07-22T23:40:09.420Z,11.70
2018-07-22T23:42:38.384Z,9.87
2018-07-22T23:45:07.380Z,11.13
2018-07-22T23:47:36.514Z,11.67
2018-07-22T23:50:06.096Z,11.57
2018-07-22T23:52:35.069Z,12.77
2018-07-22T23:55:04.209Z,11.53
2018-07-22T23:57:33.203Z,11.60
